sensor_id;sensor_type;location;lat;lon;timestamp;pressure;altitude;pressure_sealevel;temperature;humidity
65131;BME280;51709;54.912;8.316;2023-04-07T00:01:46;101674.28;;;4.81;53.13
65131;BME280;51709;54.912;8.316;2023-04-07T00:07:07;101678.56;;;4.82;53.20
65131;BME280;51709;54.912;8.316;2023-04-07T00:12:28;101670.94;;;4.83;53.28
65131;BME280;51709;54.912;8.316;2023-04-07T00:17:48;101672.59;;;4.81;53.34
65131;BME280;51709;54.912;8.316;2023-04-07T00:23:09;101671.72;;;4.79;53.52
65131;BME280;51709;54.912;8.316;2023-04-07T00:28:29;101673.38;;;4.77;53.73
65131;BME280;51709;54.912;8.316;2023-04-07T00:33:50;101672.53;;;4.78;53.75
65131;BME280;51709;54.912;8.316;2023-04-07T00:39:10;101690.41;;;4.81;53.84
65131;BME280;51709;54.912;8.316;2023-04-07T00:44:31;101680.22;;;4.80;54.11
65131;BME280;51709;54.912;8.316;2023-04-07T00:49:52;101682.78;;;4.81;54.05
65131;BME280;51709;54.912;8.316;2023-04-07T00:55:13;101687.00;;;4.81;54.05
65131;BME280;51709;54.912;8.316;2023-04-07T01:00:40;101685.25;;;4.78;54.42
65131;BME280;51709;54.912;8.316;2023-04-07T01:06:05;101688.63;;;4.77;54.48
65131;BME280;51709;54.912;8.316;2023-04-07T01:11:41;101690.41;;;4.83;54.21
65131;BME280;51709;54.912;8.316;2023-04-07T01:17:10;101685.19;;;4.73;54.28
65131;BME280;51709;54.912;8.316;2023-04-07T01:22:42;101688.59;;;4.74;54.47
65131;BME280;51709;54.912;8.316;2023-04-07T01:34:03;101693.69;;;4.75;54.83
65131;BME280;51709;54.912;8.316;2023-04-07T01:39:26;101702.13;;;4.73;55.07
65131;BME280;51709;54.912;8.316;2023-04-07T01:44:48;101697.91;;;4.73;55.13
65131;BME280;51709;54.912;8.316;2023-04-07T01:50:11;101702.97;;;4.73;55.24
65131;BME280;51709;54.912;8.316;2023-04-07T01:55:32;101705.56;;;4.75;55.32
65131;BME280;51709;54.912;8.316;2023-04-07T02:00:59;101704.75;;;4.76;55.44
65131;BME280;51709;54.912;8.316;2023-04-07T02:06:22;101706.41;;;4.75;55.65
65131;BME280;51709;54.912;8.316;2023-04-07T02:11:48;101702.19;;;4.76;55.74
65131;BME280;51709;54.912;8.316;2023-04-07T02:17:13;101708.94;;;4.75;55.86
65131;BME280;51709;54.912;8.316;2023-04-07T02:22:37;101711.50;;;4.75;56.00
65131;BME280;51709;54.912;8.316;2023-04-07T02:27:59;101713.22;;;4.76;55.88
65131;BME280;51709;54.912;8.316;2023-04-07T02:33:19;101719.13;;;4.77;55.89
65131;BME280;51709;54.912;8.316;2023-04-07T02:38:40;101717.41;;;4.74;56.11
65131;BME280;51709;54.912;8.316;2023-04-07T02:44:01;101728.38;;;4.72;56.34
65131;BME280;51709;54.912;8.316;2023-04-07T02:49:22;101730.84;;;4.67;56.40
65131;BME280;51709;54.912;8.316;2023-04-07T02:54:43;101724.06;;;4.68;56.58
65131;BME280;51709;54.912;8.316;2023-04-07T03:00:05;101734.22;;;4.66;56.49
65131;BME280;51709;54.912;8.316;2023-04-07T03:05:55;101736.63;;;4.60;56.77
65131;BME280;51709;54.912;8.316;2023-04-07T03:11:16;101742.56;;;4.59;56.79
65131;BME280;51709;54.912;8.316;2023-04-07T03:16:38;101745.88;;;4.55;56.97
65131;BME280;51709;54.912;8.316;2023-04-07T03:22:01;101739.00;;;4.49;57.27
65131;BME280;51709;54.912;8.316;2023-04-07T03:27:27;101740.66;;;4.47;57.37
65131;BME280;51709;54.912;8.316;2023-04-07T03:32:47;101746.50;;;4.43;57.52
65131;BME280;51709;54.912;8.316;2023-04-07T03:38:09;101749.84;;;4.40;57.48
65131;BME280;51709;54.912;8.316;2023-04-07T03:43:30;101748.94;;;4.38;57.41
65131;BME280;51709;54.912;8.316;2023-04-07T03:48:54;101767.56;;;4.36;57.63
65131;BME280;51709;54.912;8.316;2023-04-07T03:54:15;101769.19;;;4.32;57.81
65131;BME280;51709;54.912;8.316;2023-04-07T03:59:37;101770.81;;;4.28;57.82
65131;BME280;51709;54.912;8.316;2023-04-07T04:04:59;101771.66;;;4.29;57.91
65131;BME280;51709;54.912;8.316;2023-04-07T04:10:20;101775.75;;;4.24;58.06
65131;BME280;51709;54.912;8.316;2023-04-07T04:15:44;101785.06;;;4.22;58.19
65131;BME280;51709;54.912;8.316;2023-04-07T04:21:08;101787.50;;;4.17;58.41
65131;BME280;51709;54.912;8.316;2023-04-07T04:26:32;101788.25;;;4.11;58.56
65131;BME280;51709;54.912;8.316;2023-04-07T04:32:00;101792.44;;;4.11;58.75
65131;BME280;51709;54.912;8.316;2023-04-07T04:37:22;101805.13;;;4.09;58.74
65131;BME280;51709;54.912;8.316;2023-04-07T04:42:43;101799.97;;;4.06;58.67
65131;BME280;51709;54.912;8.316;2023-04-07T04:48:05;101804.97;;;4.03;58.87
65131;BME280;51709;54.912;8.316;2023-04-07T04:53:26;101799.06;;;4.03;58.82
65131;BME280;51709;54.912;8.316;2023-04-07T04:58:51;101816.75;;;3.99;59.05
65131;BME280;51709;54.912;8.316;2023-04-07T05:04:21;101810.78;;;3.97;59.35
65131;BME280;51709;54.912;8.316;2023-04-07T05:09:52;101833.66;;;3.97;59.49
65131;BME280;51709;54.912;8.316;2023-04-07T05:15:14;101843.88;;;4.00;59.42
65131;BME280;51709;54.912;8.316;2023-04-07T05:20:38;101849.84;;;4.03;59.46
65131;BME280;51709;54.912;8.316;2023-04-07T05:26:00;101849.88;;;4.04;59.45
65131;BME280;51709;54.912;8.316;2023-04-07T05:31:22;101859.31;;;4.10;59.57
65131;BME280;51709;54.912;8.316;2023-04-07T05:36:46;101866.19;;;4.14;59.46
65131;BME280;51709;54.912;8.316;2023-04-07T05:42:08;101862.94;;;4.20;59.46
65131;BME280;51709;54.912;8.316;2023-04-07T05:47:30;101880.81;;;4.24;59.44
65131;BME280;51709;54.912;8.316;2023-04-07T05:52:52;101887.75;;;4.31;59.49
65131;BME280;51709;54.912;8.316;2023-04-07T05:58:16;101898.16;;;4.42;59.36
65131;BME280;51709;54.912;8.316;2023-04-07T06:03:42;101904.25;;;4.51;59.24
65131;BME280;51709;54.912;8.316;2023-04-07T06:09:08;101906.97;;;4.60;59.33
65131;BME280;51709;54.912;8.316;2023-04-07T06:14:28;101911.41;;;4.69;59.17
65131;BME280;51709;54.912;8.316;2023-04-07T06:19:48;101921.81;;;4.80;58.95
65131;BME280;51709;54.912;8.316;2023-04-07T06:25:09;101927.06;;;4.89;58.84
65131;BME280;51709;54.912;8.316;2023-04-07T06:30:30;101933.31;;;5.03;58.63
65131;BME280;51709;54.912;8.316;2023-04-07T06:35:55;101939.50;;;5.18;58.36
65131;BME280;51709;54.912;8.316;2023-04-07T06:41:16;101945.69;;;5.31;58.31
65131;BME280;51709;54.912;8.316;2023-04-07T06:46:36;101950.28;;;5.50;57.73
65131;BME280;51709;54.912;8.316;2023-04-07T06:51:57;101949.81;;;5.71;57.40
65131;BME280;51709;54.912;8.316;2023-04-07T06:57:17;101960.28;;;5.89;57.11
65131;BME280;51709;54.912;8.316;2023-04-07T07:02:38;101964.84;;;6.05;56.88
65131;BME280;51709;54.912;8.316;2023-04-07T07:07:59;101965.94;;;6.23;56.63
65131;BME280;51709;54.912;8.316;2023-04-07T07:13:23;101975.50;;;6.35;56.38
65131;BME280;51709;54.912;8.316;2023-04-07T07:18:44;101984.34;;;6.60;55.99
65131;BME280;51709;54.912;8.316;2023-04-07T07:24:06;101981.13;;;6.76;55.84
65131;BME280;51709;54.912;8.316;2023-04-07T07:29:27;101990.00;;;7.03;55.29
65131;BME280;51709;54.912;8.316;2023-04-07T07:34:47;102001.44;;;7.35;54.92
65131;BME280;51709;54.912;8.316;2023-04-07T07:40:07;102010.31;;;7.72;54.24
65131;BME280;51709;54.912;8.316;2023-04-07T07:45:28;102025.94;;;7.99;53.83
65131;BME280;51709;54.912;8.316;2023-04-07T07:50:49;102009.06;;;8.23;53.53
65131;BME280;51709;54.912;8.316;2023-04-07T07:56:11;102016.88;;;8.43;53.25
65131;BME280;51709;54.912;8.316;2023-04-07T08:01:32;102024.72;;;8.63;52.80
65131;BME280;51709;54.912;8.316;2023-04-07T08:06:52;102033.38;;;8.84;52.42
65131;BME280;51709;54.912;8.316;2023-04-07T08:12:14;102043.66;;;8.96;52.04
65131;BME280;51709;54.912;8.316;2023-04-07T08:17:35;102045.50;;;9.20;51.83
65131;BME280;51709;54.912;8.316;2023-04-07T08:22:56;102046.47;;;9.55;50.69
65131;BME280;51709;54.912;8.316;2023-04-07T08:28:18;102055.06;;;9.77;50.21
65131;BME280;51709;54.912;8.316;2023-04-07T08:33:38;102060.22;;;10.00;49.83
65131;BME280;51709;54.912;8.316;2023-04-07T08:38:59;102078.19;;;10.19;49.51
65131;BME280;51709;54.912;8.316;2023-04-07T08:44:21;102075.69;;;10.44;48.93
65131;BME280;51709;54.912;8.316;2023-04-07T08:49:43;102069.63;;;10.65;48.25
65131;BME280;51709;54.912;8.316;2023-04-07T08:55:04;102079.91;;;10.81;47.91
65131;BME280;51709;54.912;8.316;2023-04-07T09:00:28;102079.00;;;11.05;47.17
65131;BME280;51709;54.912;8.316;2023-04-07T09:05:49;102096.00;;;11.41;46.18
65131;BME280;51709;54.912;8.316;2023-04-07T09:11:10;102089.78;;;11.78;45.34
65131;BME280;51709;54.912;8.316;2023-04-07T09:16:31;102096.56;;;11.99;44.96
65131;BME280;51709;54.912;8.316;2023-04-07T09:21:52;102098.91;;;12.29;44.39
65131;BME280;51709;54.912;8.316;2023-04-07T09:27:15;102096.88;;;12.67;43.54
65131;BME280;51709;54.912;8.316;2023-04-07T09:32:37;102104.31;;;12.94;43.11
65131;BME280;51709;54.912;8.316;2023-04-07T09:38:04;102095.31;;;13.31;42.49
65131;BME280;51709;54.912;8.316;2023-04-07T09:43:26;102107.88;;;13.62;41.81
65131;BME280;51709;54.912;8.316;2023-04-07T09:48:46;102104.19;;;13.79;41.36
65131;BME280;51709;54.912;8.316;2023-04-07T09:54:08;102108.22;;;13.97;40.80
65131;BME280;51709;54.912;8.316;2023-04-07T09:59:30;102102.72;;;14.20;40.28
65131;BME280;51709;54.912;8.316;2023-04-07T10:04:51;102115.16;;;14.49;39.54
65131;BME280;51709;54.912;8.316;2023-04-07T10:10:11;102112.53;;;14.51;39.21
65131;BME280;51709;54.912;8.316;2023-04-07T10:15:31;102106.09;;;14.77;38.25
65131;BME280;51709;54.912;8.316;2023-04-07T10:20:52;102115.94;;;15.03;37.52
65131;BME280;51709;54.912;8.316;2023-04-07T10:26:18;102117.69;;;15.45;36.54
65131;BME280;51709;54.912;8.316;2023-04-07T10:31:43;102140.81;;;15.94;35.91
65131;BME280;51709;54.912;8.316;2023-04-07T10:37:10;102139.31;;;16.57;34.89
65131;BME280;51709;54.912;8.316;2023-04-07T10:53:17;102145.69;;;27.06;21.90
65131;BME280;51709;54.912;8.316;2023-04-07T10:58:37;102159.47;;;34.77;15.82
65131;BME280;51709;54.912;8.316;2023-04-07T11:03:58;102172.81;;;38.15;13.79
65131;BME280;51709;54.912;8.316;2023-04-07T11:09:19;102191.53;;;40.27;12.82
65131;BME280;51709;54.912;8.316;2023-04-07T11:14:41;102184.97;;;42.26;12.08
65131;BME280;51709;54.912;8.316;2023-04-07T11:20:02;102192.59;;;43.96;10.99
65131;BME280;51709;54.912;8.316;2023-04-07T11:25:22;102195.44;;;45.30;10.09
65131;BME280;51709;54.912;8.316;2023-04-07T11:30:51;102202.97;;;45.88;9.56
65131;BME280;51709;54.912;8.316;2023-04-07T11:36:12;102213.47;;;46.49;9.55
65131;BME280;51709;54.912;8.316;2023-04-07T11:41:45;102195.31;;;46.49;9.12
65131;BME280;51709;54.912;8.316;2023-04-07T11:47:06;102211.25;;;46.74;8.67
65131;BME280;51709;54.912;8.316;2023-04-07T11:52:27;102227.31;;;48.40;7.75
65131;BME280;51709;54.912;8.316;2023-04-07T11:57:48;102225.72;;;48.44;7.40
65131;BME280;51709;54.912;8.316;2023-04-07T12:03:11;102230.44;;;48.81;7.02
65131;BME280;51709;54.912;8.316;2023-04-07T12:08:37;102226.00;;;50.47;6.46
65131;BME280;51709;54.912;8.316;2023-04-07T12:13:58;102234.88;;;54.66;4.39
65131;BME280;51709;54.912;8.316;2023-04-07T12:19:18;102227.59;;;57.32;3.68
65131;BME280;51709;54.912;8.316;2023-04-07T12:24:39;102251.63;;;57.40;3.81
65131;BME280;51709;54.912;8.316;2023-04-07T12:29:59;102239.19;;;55.75;4.50
65131;BME280;51709;54.912;8.316;2023-04-07T12:35:20;102221.97;;;49.86;6.72
65131;BME280;51709;54.912;8.316;2023-04-07T12:40:42;102223.34;;;48.03;7.63
65131;BME280;51709;54.912;8.316;2023-04-07T12:46:03;102222.06;;;46.57;7.95
65131;BME280;51709;54.912;8.316;2023-04-07T12:51:24;102214.41;;;46.83;7.45
65131;BME280;51709;54.912;8.316;2023-04-07T12:56:45;102222.84;;;47.67;6.68
65131;BME280;51709;54.912;8.316;2023-04-07T13:02:07;102206.88;;;45.32;7.64
65131;BME280;51709;54.912;8.316;2023-04-07T13:07:28;102224.69;;;43.93;8.20
65131;BME280;51709;54.912;8.316;2023-04-07T13:12:48;102221.00;;;40.49;9.87
65131;BME280;51709;54.912;8.316;2023-04-07T13:18:09;102223.19;;;42.10;8.43
65131;BME280;51709;54.912;8.316;2023-04-07T13:23:30;102225.78;;;43.02;8.13
65131;BME280;51709;54.912;8.316;2023-04-07T13:29:03;102225.44;;;42.40;8.40
65131;BME280;51709;54.912;8.316;2023-04-07T13:34:23;102219.41;;;42.31;8.45
65131;BME280;51709;54.912;8.316;2023-04-07T13:39:43;102220.50;;;42.10;8.53
65131;BME280;51709;54.912;8.316;2023-04-07T13:45:05;102210.22;;;42.52;8.22
65131;BME280;51709;54.912;8.316;2023-04-07T13:50:26;102208.25;;;36.78;11.03
65131;BME280;51709;54.912;8.316;2023-04-07T13:55:46;102205.59;;;36.78;10.80
65131;BME280;51709;54.912;8.316;2023-04-07T14:01:07;102200.38;;;41.18;8.48
65131;BME280;51709;54.912;8.316;2023-04-07T14:06:28;102204.97;;;45.33;6.72
65131;BME280;51709;54.912;8.316;2023-04-07T14:11:49;102206.69;;;47.82;5.76
65131;BME280;51709;54.912;8.316;2023-04-07T14:17:09;102205.59;;;49.91;5.21
65131;BME280;51709;54.912;8.316;2023-04-07T14:22:30;102212.97;;;49.42;5.51
65131;BME280;51709;54.912;8.316;2023-04-07T14:27:51;102205.66;;;49.10;5.33
65131;BME280;51709;54.912;8.316;2023-04-07T14:33:12;102198.47;;;49.85;5.31
65131;BME280;51709;54.912;8.316;2023-04-07T14:38:33;102212.91;;;50.64;4.88
65131;BME280;51709;54.912;8.316;2023-04-07T14:43:54;102213.31;;;52.30;4.11
65131;BME280;51709;54.912;8.316;2023-04-07T14:49:15;102219.22;;;53.17;4.02
65131;BME280;51709;54.912;8.316;2023-04-07T14:54:36;102206.81;;;52.61;4.14
65131;BME280;51709;54.912;8.316;2023-04-07T14:59:56;102221.66;;;51.13;5.05
65131;BME280;51709;54.912;8.316;2023-04-07T15:05:16;102215.63;;;50.64;4.79
65131;BME280;51709;54.912;8.316;2023-04-07T15:10:38;102204.88;;;46.69;6.40
65131;BME280;51709;54.912;8.316;2023-04-07T15:16:09;102194.59;;;45.53;6.58
65131;BME280;51709;54.912;8.316;2023-04-07T15:21:30;102202.88;;;43.69;7.40
65131;BME280;51709;54.912;8.316;2023-04-07T15:26:52;102207.09;;;42.94;7.59
65131;BME280;51709;54.912;8.316;2023-04-07T15:32:12;102216.00;;;40.88;8.27
65131;BME280;51709;54.912;8.316;2023-04-07T15:37:33;102208.03;;;38.87;9.24
65131;BME280;51709;54.912;8.316;2023-04-07T15:42:53;102203.84;;;36.93;10.20
65131;BME280;51709;54.912;8.316;2023-04-07T15:48:14;102196.44;;;32.16;12.72
65131;BME280;51709;54.912;8.316;2023-04-07T15:53:35;102207.50;;;25.24;17.68
65131;BME280;51709;54.912;8.316;2023-04-07T15:58:55;102209.22;;;22.00;20.19
65131;BME280;51709;54.912;8.316;2023-04-07T16:04:16;102203.38;;;20.12;21.60
65131;BME280;51709;54.912;8.316;2023-04-07T16:09:38;102203.03;;;19.76;21.62
65131;BME280;51709;54.912;8.316;2023-04-07T16:14:59;102211.59;;;18.81;22.40
65131;BME280;51709;54.912;8.316;2023-04-07T16:20:20;102211.78;;;17.91;23.39
65131;BME280;51709;54.912;8.316;2023-04-07T16:25:40;102217.31;;;17.17;24.05
65131;BME280;51709;54.912;8.316;2023-04-07T16:31:01;102218.03;;;16.88;24.23
65131;BME280;51709;54.912;8.316;2023-04-07T16:36:25;102215.53;;;16.50;24.64
65131;BME280;51709;54.912;8.316;2023-04-07T16:41:46;102224.47;;;16.37;24.76
65131;BME280;51709;54.912;8.316;2023-04-07T16:47:06;102231.22;;;16.05;25.22
65131;BME280;51709;54.912;8.316;2023-04-07T16:52:27;102237.00;;;15.74;25.73
65131;BME280;51709;54.912;8.316;2023-04-07T16:57:48;102245.59;;;15.30;26.36
65131;BME280;51709;54.912;8.316;2023-04-07T17:03:09;102253.16;;;14.91;26.88
65131;BME280;51709;54.912;8.316;2023-04-07T17:08:31;102254.91;;;14.90;27.16
65131;BME280;51709;54.912;8.316;2023-04-07T17:13:52;102263.94;;;14.61;27.56
65131;BME280;51709;54.912;8.316;2023-04-07T17:19:17;102266.25;;;14.19;28.28
65131;BME280;51709;54.912;8.316;2023-04-07T17:24:37;102279.25;;;14.11;28.61
65131;BME280;51709;54.912;8.316;2023-04-07T17:29:58;102284.44;;;14.08;28.68
65131;BME280;51709;54.912;8.316;2023-04-07T17:35:19;102281.28;;;13.84;29.20
65131;BME280;51709;54.912;8.316;2023-04-07T17:40:39;102304.88;;;13.50;29.86
65131;BME280;51709;54.912;8.316;2023-04-07T17:46:00;102301.81;;;13.05;30.57
65131;BME280;51709;54.912;8.316;2023-04-07T17:51:24;102305.59;;;12.53;31.55
65131;BME280;51709;54.912;8.316;2023-04-07T17:56:45;102323.75;;;12.26;31.83
65131;BME280;51709;54.912;8.316;2023-04-07T18:02:06;102319.56;;;11.80;32.95
65131;BME280;51709;54.912;8.316;2023-04-07T18:07:29;102328.19;;;11.27;34.26
65131;BME280;51709;54.912;8.316;2023-04-07T18:12:50;102337.56;;;10.78;35.16
65131;BME280;51709;54.912;8.316;2023-04-07T18:18:11;102349.44;;;10.42;35.95
65131;BME280;51709;54.912;8.316;2023-04-07T18:23:32;102349.22;;;10.06;36.68
65131;BME280;51709;54.912;8.316;2023-04-07T18:28:52;102350.78;;;9.81;37.38
65131;BME280;51709;54.912;8.316;2023-04-07T18:34:13;102361.69;;;9.55;37.90
65131;BME280;51709;54.912;8.316;2023-04-07T18:39:34;102368.41;;;9.39;38.23
65131;BME280;51709;54.912;8.316;2023-04-07T18:44:54;102384.53;;;9.30;38.55
65131;BME280;51709;54.912;8.316;2023-04-07T18:50:16;102388.53;;;9.00;39.37
65131;BME280;51709;54.912;8.316;2023-04-07T18:55:36;102394.28;;;8.79;39.71
65131;BME280;51709;54.912;8.316;2023-04-07T19:00:57;102405.03;;;8.53;40.37
65131;BME280;51709;54.912;8.316;2023-04-07T19:06:17;102406.31;;;8.22;40.69
65131;BME280;51709;54.912;8.316;2023-04-07T19:11:38;102416.31;;;8.05;41.24
65131;BME280;51709;54.912;8.316;2023-04-07T19:17:00;102422.06;;;7.91;41.48
65131;BME280;51709;54.912;8.316;2023-04-07T19:22:21;102424.50;;;7.83;41.66
65131;BME280;51709;54.912;8.316;2023-04-07T19:27:42;102434.69;;;7.82;41.48
65131;BME280;51709;54.912;8.316;2023-04-07T19:33:03;102445.72;;;7.79;41.53
65131;BME280;51709;54.912;8.316;2023-04-07T19:38:23;102438.88;;;7.78;41.66
65131;BME280;51709;54.912;8.316;2023-04-07T19:43:44;102442.94;;;7.67;41.89
65131;BME280;51709;54.912;8.316;2023-04-07T19:49:04;102452.25;;;7.62;42.38
65131;BME280;51709;54.912;8.316;2023-04-07T19:54:25;102451.22;;;7.53;42.46
65131;BME280;51709;54.912;8.316;2023-04-07T19:59:46;102454.59;;;7.49;42.46
65131;BME280;51709;54.912;8.316;2023-04-07T20:05:08;102453.63;;;7.43;42.74
65131;BME280;51709;54.912;8.316;2023-04-07T20:10:28;102450.16;;;7.40;42.95
65131;BME280;51709;54.912;8.316;2023-04-07T20:15:49;102460.41;;;7.42;42.70
65131;BME280;51709;54.912;8.316;2023-04-07T20:21:10;102460.38;;;7.39;43.09
65131;BME280;51709;54.912;8.316;2023-04-07T20:26:30;102459.47;;;7.38;42.86
65131;BME280;51709;54.912;8.316;2023-04-07T20:31:51;102458.69;;;7.41;42.88
65131;BME280;51709;54.912;8.316;2023-04-07T20:37:12;102456.09;;;7.38;43.05
65131;BME280;51709;54.912;8.316;2023-04-07T20:42:33;102459.41;;;7.34;43.36
65131;BME280;51709;54.912;8.316;2023-04-07T20:47:53;102467.94;;;7.34;43.28
65131;BME280;51709;54.912;8.316;2023-04-07T20:53:14;102469.56;;;7.31;43.58
65131;BME280;51709;54.912;8.316;2023-04-07T20:58:35;102482.25;;;7.26;43.67
65131;BME280;51709;54.912;8.316;2023-04-07T21:03:56;102484.69;;;7.20;43.79
65131;BME280;51709;54.912;8.316;2023-04-07T21:09:19;102477.88;;;7.20;43.88
65131;BME280;51709;54.912;8.316;2023-04-07T21:14:39;102479.66;;;7.24;43.67
65131;BME280;51709;54.912;8.316;2023-04-07T21:20:00;102479.66;;;7.23;43.80
65131;BME280;51709;54.912;8.316;2023-04-07T21:25:20;102485.59;;;7.22;44.17
65131;BME280;51709;54.912;8.316;2023-04-07T21:30:41;102472.81;;;7.22;44.17
65131;BME280;51709;54.912;8.316;2023-04-07T21:36:02;102481.31;;;7.21;44.19
65131;BME280;51709;54.912;8.316;2023-04-07T21:41:23;102480.56;;;7.27;44.37
65131;BME280;51709;54.912;8.316;2023-04-07T21:46:43;102466.97;;;7.28;44.33
65131;BME280;51709;54.912;8.316;2023-04-07T21:52:05;102470.50;;;7.36;44.31
65131;BME280;51709;54.912;8.316;2023-04-07T21:57:26;102477.91;;;7.68;43.83
65131;BME280;51709;54.912;8.316;2023-04-07T22:02:46;102483.28;;;7.83;43.84
65131;BME280;51709;54.912;8.316;2023-04-07T22:08:07;102475.00;;;8.00;43.79
65131;BME280;51709;54.912;8.316;2023-04-07T22:13:28;102473.53;;;8.14;43.79
65131;BME280;51709;54.912;8.316;2023-04-07T22:18:48;102469.50;;;8.27;43.91
65131;BME280;51709;54.912;8.316;2023-04-07T22:24:10;102482.41;;;8.37;44.02
65131;BME280;51709;54.912;8.316;2023-04-07T22:29:30;102482.63;;;8.49;43.84
65131;BME280;51709;54.912;8.316;2023-04-07T22:34:51;102485.91;;;8.43;44.22
65131;BME280;51709;54.912;8.316;2023-04-07T22:40:12;102482.63;;;8.49;44.28
65131;BME280;51709;54.912;8.316;2023-04-07T22:45:32;102486.63;;;8.33;44.73
65131;BME280;51709;54.912;8.316;2023-04-07T22:50:54;102487.91;;;8.08;45.07
65131;BME280;51709;54.912;8.316;2023-04-07T22:56:15;102491.16;;;7.96;45.49
65131;BME280;51709;54.912;8.316;2023-04-07T23:01:35;102488.56;;;7.94;45.40
65131;BME280;51709;54.912;8.316;2023-04-07T23:06:56;102500.28;;;7.83;45.64
65131;BME280;51709;54.912;8.316;2023-04-07T23:12:17;102505.31;;;7.77;45.77
65131;BME280;51709;54.912;8.316;2023-04-07T23:17:37;102504.41;;;7.75;45.80
65131;BME280;51709;54.912;8.316;2023-04-07T23:22:57;102500.81;;;7.63;46.08
65131;BME280;51709;54.912;8.316;2023-04-07T23:28:18;102509.22;;;7.56;46.19
65131;BME280;51709;54.912;8.316;2023-04-07T23:33:39;102512.44;;;7.47;46.27
65131;BME280;51709;54.912;8.316;2023-04-07T23:39:00;102513.25;;;7.45;46.46
65131;BME280;51709;54.912;8.316;2023-04-07T23:44:22;102514.91;;;7.43;46.55
65131;BME280;51709;54.912;8.316;2023-04-07T23:49:42;102514.84;;;7.39;46.70
65131;BME280;51709;54.912;8.316;2023-04-07T23:55:03;102503.72;;;7.36;46.73
